createdAt,value
2023-09-03T00:08:26.833Z,20.18
2023-09-03T00:28:26.812Z,20.12
2023-09-03T00:48:26.797Z,20.12
2023-09-03T01:08:26.762Z,20.25
2023-09-03T01:28:26.745Z,20.25
2023-09-03T01:48:26.709Z,19.81
2023-09-03T02:08:26.677Z,20.06
2023-09-03T02:28:26.658Z,19.93
2023-09-03T02:48:26.630Z,20.18
2023-09-03T03:08:26.612Z,19.87
2023-09-03T03:28:26.582Z,20.00
2023-09-03T03:48:26.552Z,19.81
2023-09-03T04:08:26.530Z,19.93
2023-09-03T04:28:26.503Z,19.81
2023-09-03T04:48:26.576Z,19.75
2023-09-03T05:08:26.558Z,19.75
2023-09-03T05:28:26.525Z,20.00
2023-09-03T05:48:26.494Z,19.87
2023-09-03T06:08:26.441Z,19.81
2023-09-03T06:28:26.417Z,19.81
2023-09-03T06:48:26.398Z,19.87
2023-09-03T07:08:26.360Z,19.81
2023-09-03T07:28:26.340Z,19.87
2023-09-03T07:48:26.316Z,19.81
2023-09-03T08:08:26.293Z,19.93
2023-09-03T08:28:26.281Z,20.00
2023-09-03T08:48:26.252Z,20.18
2023-09-03T09:08:26.215Z,20.31
2023-09-03T09:28:26.193Z,20.31
2023-09-03T09:48:26.183Z,20.31
2023-09-03T10:08:26.108Z,20.37
2023-09-03T10:28:26.089Z,20.56
2023-09-03T13:28:25.812Z,21.25
2023-09-03T13:48:25.829Z,21.31
2023-09-03T14:08:25.719Z,21.25
2023-09-03T14:28:25.701Z,21.18
2023-09-03T14:48:25.772Z,21.06
2023-09-03T15:08:25.779Z,20.93
2023-09-03T15:28:26.023Z,21.25
2023-09-03T15:48:25.650Z,21.18
2023-09-03T16:08:25.563Z,21.18
2023-09-03T16:28:25.546Z,21.12
2023-09-03T16:48:25.532Z,20.75
2023-09-03T17:08:25.531Z,20.50
2023-09-03T17:28:25.516Z,20.56
2023-09-03T17:48:25.410Z,20.62
2023-09-03T18:08:25.405Z,20.50
2023-09-03T18:28:25.391Z,20.43
2023-09-03T18:48:25.385Z,20.68
2023-09-03T19:08:25.385Z,20.56
2023-09-03T19:28:25.366Z,20.37
2023-09-03T19:48:25.260Z,20.62
2023-09-03T20:08:25.233Z,20.43
2023-09-03T20:28:25.235Z,20.31
2023-09-03T20:48:25.230Z,20.43
2023-09-03T21:08:25.222Z,20.18
2023-09-03T21:28:25.205Z,20.25
2023-09-03T21:48:25.192Z,20.50
2023-09-03T22:08:25.185Z,20.31
2023-09-03T22:28:25.080Z,20.43
2023-09-03T22:48:25.059Z,20.31
2023-09-03T23:08:25.033Z,20.31
2023-09-03T23:28:25.034Z,20.25
2023-09-03T23:48:25.027Z,20.25
